sensor_id;sensor_type;location;lat;lon;timestamp;temperature;humidity
25556;DHT22;13447;57.174;-2.112;2023-09-19T00:02:19;8.40;99.90
25556;DHT22;13447;57.174;-2.112;2023-09-19T00:04:45;8.40;99.90
25556;DHT22;13447;57.174;-2.112;2023-09-19T00:07:12;8.40;99.90
25556;DHT22;13447;57.174;-2.112;2023-09-19T00:09:40;8.40;99.90
25556;DHT22;13447;57.174;-2.112;2023-09-19T00:12:07;8.50;99.90
25556;DHT22;13447;57.174;-2.112;2023-09-19T00:14:35;8.50;99.90
25556;DHT22;13447;57.174;-2.112;2023-09-19T00:17:03;8.70;99.90
25556;DHT22;13447;57.174;-2.112;2023-09-19T00:19:35;8.80;99.90
25556;DHT22;13447;57.174;-2.112;2023-09-19T00:22:02;8.80;99.90
25556;DHT22;13447;57.174;-2.112;2023-09-19T00:24:29;8.90;99.90
25556;DHT22;13447;57.174;-2.112;2023-09-19T00:26:57;9.00;99.90
25556;DHT22;13447;57.174;-2.112;2023-09-19T00:29:25;9.00;99.90
25556;DHT22;13447;57.174;-2.112;2023-09-19T00:31:56;9.10;99.90
25556;DHT22;13447;57.174;-2.112;2023-09-19T00:34:23;9.10;99.90
25556;DHT22;13447;57.174;-2.112;2023-09-19T00:36:51;9.10;99.90
25556;DHT22;13447;57.174;-2.112;2023-09-19T00:39:19;9.10;99.90
25556;DHT22;13447;57.174;-2.112;2023-09-19T00:41:47;9.10;99.90
25556;DHT22;13447;57.174;-2.112;2023-09-19T00:44:14;9.10;99.90
25556;DHT22;13447;57.174;-2.112;2023-09-19T00:46:42;9.10;99.90
25556;DHT22;13447;57.174;-2.112;2023-09-19T00:49:09;9.10;99.90
25556;DHT22;13447;57.174;-2.112;2023-09-19T00:51:37;9.10;99.90
25556;DHT22;13447;57.174;-2.112;2023-09-19T00:54:04;9.10;99.90
25556;DHT22;13447;57.174;-2.112;2023-09-19T00:56:31;9.00;99.90
25556;DHT22;13447;57.174;-2.112;2023-09-19T00:58:58;9.00;99.90
25556;DHT22;13447;57.174;-2.112;2023-09-19T01:01:25;8.90;99.90
25556;DHT22;13447;57.174;-2.112;2023-09-19T01:03:52;8.90;99.90
25556;DHT22;13447;57.174;-2.112;2023-09-19T01:06:19;8.90;99.90
25556;DHT22;13447;57.174;-2.112;2023-09-19T01:08:46;8.80;99.90
25556;DHT22;13447;57.174;-2.112;2023-09-19T01:11:14;8.80;99.90
25556;DHT22;13447;57.174;-2.112;2023-09-19T01:13:53;8.80;99.90
25556;DHT22;13447;57.174;-2.112;2023-09-19T01:18:52;8.70;99.90
25556;DHT22;13447;57.174;-2.112;2023-09-19T01:24:07;8.70;99.90
25556;DHT22;13447;57.174;-2.112;2023-09-19T01:29:39;8.60;99.90
25556;DHT22;13447;57.174;-2.112;2023-09-19T01:32:06;8.70;99.90
25556;DHT22;13447;57.174;-2.112;2023-09-19T01:34:55;8.70;99.90
25556;DHT22;13447;57.174;-2.112;2023-09-19T01:37:30;8.70;99.90
25556;DHT22;13447;57.174;-2.112;2023-09-19T01:39:59;8.80;99.90
25556;DHT22;13447;57.174;-2.112;2023-09-19T01:42:58;8.80;99.90
25556;DHT22;13447;57.174;-2.112;2023-09-19T01:48:11;8.80;99.90
25556;DHT22;13447;57.174;-2.112;2023-09-19T01:51:01;8.80;99.90
25556;DHT22;13447;57.174;-2.112;2023-09-19T01:53:36;8.70;99.90
25556;DHT22;13447;57.174;-2.112;2023-09-19T01:56:08;8.70;99.90
25556;DHT22;13447;57.174;-2.112;2023-09-19T01:58:46;8.70;99.90
25556;DHT22;13447;57.174;-2.112;2023-09-19T02:01:16;8.70;99.90
25556;DHT22;13447;57.174;-2.112;2023-09-19T02:03:45;8.60;99.90
25556;DHT22;13447;57.174;-2.112;2023-09-19T02:06:16;8.60;99.90
25556;DHT22;13447;57.174;-2.112;2023-09-19T02:08:45;8.60;99.90
25556;DHT22;13447;57.174;-2.112;2023-09-19T02:11:12;8.60;99.90
25556;DHT22;13447;57.174;-2.112;2023-09-19T02:13:39;8.60;99.90
25556;DHT22;13447;57.174;-2.112;2023-09-19T02:16:08;8.50;99.90
25556;DHT22;13447;57.174;-2.112;2023-09-19T02:18:38;8.40;99.90
25556;DHT22;13447;57.174;-2.112;2023-09-19T02:21:06;8.40;99.90
25556;DHT22;13447;57.174;-2.112;2023-09-19T02:23:39;8.40;99.90
25556;DHT22;13447;57.174;-2.112;2023-09-19T02:26:08;8.40;99.90
25556;DHT22;13447;57.174;-2.112;2023-09-19T02:28:34;8.40;99.90
25556;DHT22;13447;57.174;-2.112;2023-09-19T02:31:02;8.40;99.90
25556;DHT22;13447;57.174;-2.112;2023-09-19T02:33:32;8.30;99.90
25556;DHT22;13447;57.174;-2.112;2023-09-19T02:35:59;8.30;99.90
25556;DHT22;13447;57.174;-2.112;2023-09-19T02:38:27;8.30;99.90
25556;DHT22;13447;57.174;-2.112;2023-09-19T02:40:55;8.20;99.90
25556;DHT22;13447;57.174;-2.112;2023-09-19T02:43:23;8.20;99.90
25556;DHT22;13447;57.174;-2.112;2023-09-19T02:45:49;8.10;99.90
25556;DHT22;13447;57.174;-2.112;2023-09-19T02:48:16;8.00;99.90
25556;DHT22;13447;57.174;-2.112;2023-09-19T02:50:45;7.90;99.90
25556;DHT22;13447;57.174;-2.112;2023-09-19T02:53:12;7.90;99.90
25556;DHT22;13447;57.174;-2.112;2023-09-19T02:55:40;7.80;99.90
25556;DHT22;13447;57.174;-2.112;2023-09-19T02:58:07;7.70;99.90
25556;DHT22;13447;57.174;-2.112;2023-09-19T03:00:41;7.70;99.90
25556;DHT22;13447;57.174;-2.112;2023-09-19T03:03:13;7.70;99.90
25556;DHT22;13447;57.174;-2.112;2023-09-19T03:05:42;7.70;99.90
25556;DHT22;13447;57.174;-2.112;2023-09-19T03:08:13;7.60;99.90
25556;DHT22;13447;57.174;-2.112;2023-09-19T03:10:46;7.70;99.90
25556;DHT22;13447;57.174;-2.112;2023-09-19T03:13:13;7.70;99.90
25556;DHT22;13447;57.174;-2.112;2023-09-19T03:15:41;7.70;99.90
25556;DHT22;13447;57.174;-2.112;2023-09-19T03:18:10;7.80;99.90
25556;DHT22;13447;57.174;-2.112;2023-09-19T03:20:37;7.80;99.90
25556;DHT22;13447;57.174;-2.112;2023-09-19T03:23:05;7.80;99.90
25556;DHT22;13447;57.174;-2.112;2023-09-19T03:25:36;7.80;99.90
25556;DHT22;13447;57.174;-2.112;2023-09-19T03:28:03;7.90;99.90
25556;DHT22;13447;57.174;-2.112;2023-09-19T03:30:34;7.80;99.90
25556;DHT22;13447;57.174;-2.112;2023-09-19T03:33:00;7.80;99.90
25556;DHT22;13447;57.174;-2.112;2023-09-19T03:35:27;7.70;99.90
25556;DHT22;13447;57.174;-2.112;2023-09-19T03:37:54;7.70;99.90
25556;DHT22;13447;57.174;-2.112;2023-09-19T03:40:21;7.60;99.90
25556;DHT22;13447;57.174;-2.112;2023-09-19T03:42:49;7.60;99.90
25556;DHT22;13447;57.174;-2.112;2023-09-19T03:45:16;7.60;99.90
25556;DHT22;13447;57.174;-2.112;2023-09-19T03:47:44;7.50;99.90
25556;DHT22;13447;57.174;-2.112;2023-09-19T03:50:14;7.50;99.90
25556;DHT22;13447;57.174;-2.112;2023-09-19T03:52:44;7.50;99.90
25556;DHT22;13447;57.174;-2.112;2023-09-19T03:55:11;7.50;99.90
25556;DHT22;13447;57.174;-2.112;2023-09-19T03:57:38;7.60;99.90
25556;DHT22;13447;57.174;-2.112;2023-09-19T04:00:05;7.50;99.90
25556;DHT22;13447;57.174;-2.112;2023-09-19T04:02:38;7.50;99.90
25556;DHT22;13447;57.174;-2.112;2023-09-19T04:05:06;7.60;99.90
25556;DHT22;13447;57.174;-2.112;2023-09-19T04:07:33;7.60;99.90
25556;DHT22;13447;57.174;-2.112;2023-09-19T04:10:01;7.60;99.90
25556;DHT22;13447;57.174;-2.112;2023-09-19T04:12:29;7.70;99.90
25556;DHT22;13447;57.174;-2.112;2023-09-19T04:14:55;7.70;99.90
25556;DHT22;13447;57.174;-2.112;2023-09-19T04:17:22;7.70;99.90
25556;DHT22;13447;57.174;-2.112;2023-09-19T04:19:50;7.80;99.90
25556;DHT22;13447;57.174;-2.112;2023-09-19T04:22:17;7.80;99.90
25556;DHT22;13447;57.174;-2.112;2023-09-19T04:24:44;7.80;99.90
25556;DHT22;13447;57.174;-2.112;2023-09-19T04:27:11;7.80;99.90
25556;DHT22;13447;57.174;-2.112;2023-09-19T04:29:41;7.80;99.90
25556;DHT22;13447;57.174;-2.112;2023-09-19T04:32:11;7.80;99.90
25556;DHT22;13447;57.174;-2.112;2023-09-19T04:34:39;7.80;99.90
25556;DHT22;13447;57.174;-2.112;2023-09-19T04:37:06;7.70;99.90
25556;DHT22;13447;57.174;-2.112;2023-09-19T04:39:33;7.70;99.90
25556;DHT22;13447;57.174;-2.112;2023-09-19T04:42:00;7.60;99.90
25556;DHT22;13447;57.174;-2.112;2023-09-19T04:44:27;7.70;99.90
25556;DHT22;13447;57.174;-2.112;2023-09-19T04:46:54;7.80;99.90
25556;DHT22;13447;57.174;-2.112;2023-09-19T04:49:21;7.90;99.90
25556;DHT22;13447;57.174;-2.112;2023-09-19T04:51:51;7.90;99.90
25556;DHT22;13447;57.174;-2.112;2023-09-19T04:54:18;8.00;99.90
25556;DHT22;13447;57.174;-2.112;2023-09-19T04:56:45;8.10;99.90
25556;DHT22;13447;57.174;-2.112;2023-09-19T04:59:12;8.10;99.90
25556;DHT22;13447;57.174;-2.112;2023-09-19T05:01:38;8.10;99.90
25556;DHT22;13447;57.174;-2.112;2023-09-19T05:04:06;8.20;99.90
25556;DHT22;13447;57.174;-2.112;2023-09-19T05:06:32;8.20;99.90
25556;DHT22;13447;57.174;-2.112;2023-09-19T05:09:02;8.30;1.00
25556;DHT22;13447;57.174;-2.112;2023-09-19T05:11:32;8.40;1.00
25556;DHT22;13447;57.174;-2.112;2023-09-19T05:14:00;8.50;1.00
25556;DHT22;13447;57.174;-2.112;2023-09-19T05:16:30;8.50;1.00
25556;DHT22;13447;57.174;-2.112;2023-09-19T05:19:01;8.50;1.00
25556;DHT22;13447;57.174;-2.112;2023-09-19T05:21:28;8.50;1.00
25556;DHT22;13447;57.174;-2.112;2023-09-19T05:23:56;8.60;1.00
25556;DHT22;13447;57.174;-2.112;2023-09-19T05:26:23;8.60;1.00
25556;DHT22;13447;57.174;-2.112;2023-09-19T05:28:50;8.60;1.00
25556;DHT22;13447;57.174;-2.112;2023-09-19T05:31:17;8.60;1.00
25556;DHT22;13447;57.174;-2.112;2023-09-19T05:33:44;8.60;1.00
25556;DHT22;13447;57.174;-2.112;2023-09-19T05:36:11;8.60;1.00
25556;DHT22;13447;57.174;-2.112;2023-09-19T05:38:38;8.60;1.00
25556;DHT22;13447;57.174;-2.112;2023-09-19T05:41:08;8.60;1.00
25556;DHT22;13447;57.174;-2.112;2023-09-19T05:43:40;8.60;1.00
25556;DHT22;13447;57.174;-2.112;2023-09-19T05:46:08;8.60;1.00
25556;DHT22;13447;57.174;-2.112;2023-09-19T05:48:35;8.60;1.00
25556;DHT22;13447;57.174;-2.112;2023-09-19T05:51:02;8.70;1.00
25556;DHT22;13447;57.174;-2.112;2023-09-19T05:53:29;8.70;1.00
25556;DHT22;13447;57.174;-2.112;2023-09-19T05:55:56;8.70;1.00
25556;DHT22;13447;57.174;-2.112;2023-09-19T05:58:24;8.70;1.00
25556;DHT22;13447;57.174;-2.112;2023-09-19T06:00:50;8.70;1.00
25556;DHT22;13447;57.174;-2.112;2023-09-19T06:03:18;8.70;1.00
25556;DHT22;13447;57.174;-2.112;2023-09-19T06:05:47;8.70;1.00
25556;DHT22;13447;57.174;-2.112;2023-09-19T06:08:16;8.70;1.00
25556;DHT22;13447;57.174;-2.112;2023-09-19T06:10:43;8.70;1.00
25556;DHT22;13447;57.174;-2.112;2023-09-19T06:13:10;8.60;1.00
25556;DHT22;13447;57.174;-2.112;2023-09-19T06:15:37;8.60;1.00
25556;DHT22;13447;57.174;-2.112;2023-09-19T06:18:04;8.50;1.00
25556;DHT22;13447;57.174;-2.112;2023-09-19T06:20:32;8.50;1.00
25556;DHT22;13447;57.174;-2.112;2023-09-19T06:23:00;8.60;1.00
25556;DHT22;13447;57.174;-2.112;2023-09-19T06:25:28;8.50;1.00
25556;DHT22;13447;57.174;-2.112;2023-09-19T06:27:55;8.60;1.00
25556;DHT22;13447;57.174;-2.112;2023-09-19T06:30:23;8.60;1.00
25556;DHT22;13447;57.174;-2.112;2023-09-19T06:32:56;8.60;1.00
25556;DHT22;13447;57.174;-2.112;2023-09-19T06:35:23;8.70;1.00
25556;DHT22;13447;57.174;-2.112;2023-09-19T06:37:50;8.70;1.00
25556;DHT22;13447;57.174;-2.112;2023-09-19T06:40:18;8.70;1.00
25556;DHT22;13447;57.174;-2.112;2023-09-19T06:42:46;8.80;1.00
25556;DHT22;13447;57.174;-2.112;2023-09-19T06:45:14;8.80;1.00
25556;DHT22;13447;57.174;-2.112;2023-09-19T06:47:46;8.80;1.00
25556;DHT22;13447;57.174;-2.112;2023-09-19T06:50:20;8.90;1.00
25556;DHT22;13447;57.174;-2.112;2023-09-19T06:52:50;9.00;1.00
25556;DHT22;13447;57.174;-2.112;2023-09-19T06:55:18;9.00;1.00
25556;DHT22;13447;57.174;-2.112;2023-09-19T06:57:47;9.00;1.00
25556;DHT22;13447;57.174;-2.112;2023-09-19T07:00:14;9.10;1.00
25556;DHT22;13447;57.174;-2.112;2023-09-19T07:17:36;9.30;1.00
25556;DHT22;13447;57.174;-2.112;2023-09-19T07:20:03;9.30;1.00
25556;DHT22;13447;57.174;-2.112;2023-09-19T07:22:36;9.40;1.00
25556;DHT22;13447;57.174;-2.112;2023-09-19T07:25:06;9.50;1.00
25556;DHT22;13447;57.174;-2.112;2023-09-19T07:32:27;9.70;1.00
25556;DHT22;13447;57.174;-2.112;2023-09-19T07:34:54;9.60;99.90
25556;DHT22;13447;57.174;-2.112;2023-09-19T07:37:22;9.70;99.90
25556;DHT22;13447;57.174;-2.112;2023-09-19T07:39:52;9.70;99.90
25556;DHT22;13447;57.174;-2.112;2023-09-19T07:42:18;9.80;99.90
25556;DHT22;13447;57.174;-2.112;2023-09-19T07:44:45;9.90;99.90
25556;DHT22;13447;57.174;-2.112;2023-09-19T07:47:17;9.90;99.90
25556;DHT22;13447;57.174;-2.112;2023-09-19T07:49:46;10.00;99.90
25556;DHT22;13447;57.174;-2.112;2023-09-19T07:52:14;10.00;99.90
25556;DHT22;13447;57.174;-2.112;2023-09-19T07:54:42;10.10;99.90
25556;DHT22;13447;57.174;-2.112;2023-09-19T07:57:10;10.10;99.90
25556;DHT22;13447;57.174;-2.112;2023-09-19T07:59:37;10.20;99.90
25556;DHT22;13447;57.174;-2.112;2023-09-19T08:02:05;10.20;99.90
25556;DHT22;13447;57.174;-2.112;2023-09-19T08:04:35;10.20;99.90
25556;DHT22;13447;57.174;-2.112;2023-09-19T08:07:02;10.20;99.90
25556;DHT22;13447;57.174;-2.112;2023-09-19T08:09:31;10.30;99.90
25556;DHT22;13447;57.174;-2.112;2023-09-19T08:11:59;10.30;99.90
25556;DHT22;13447;57.174;-2.112;2023-09-19T08:14:29;10.40;99.90
25556;DHT22;13447;57.174;-2.112;2023-09-19T08:16:57;10.40;99.90
25556;DHT22;13447;57.174;-2.112;2023-09-19T08:19:25;10.50;99.90
25556;DHT22;13447;57.174;-2.112;2023-09-19T08:21:57;10.60;99.90
25556;DHT22;13447;57.174;-2.112;2023-09-19T08:24:28;10.60;99.90
25556;DHT22;13447;57.174;-2.112;2023-09-19T08:26:56;10.60;99.90
25556;DHT22;13447;57.174;-2.112;2023-09-19T08:29:23;10.70;99.90
25556;DHT22;13447;57.174;-2.112;2023-09-19T08:31:55;10.80;99.90
25556;DHT22;13447;57.174;-2.112;2023-09-19T08:34:25;10.90;99.90
25556;DHT22;13447;57.174;-2.112;2023-09-19T08:36:53;10.90;99.90
25556;DHT22;13447;57.174;-2.112;2023-09-19T08:39:26;10.90;99.90
25556;DHT22;13447;57.174;-2.112;2023-09-19T08:41:59;10.90;99.90
25556;DHT22;13447;57.174;-2.112;2023-09-19T08:44:26;11.10;99.90
25556;DHT22;13447;57.174;-2.112;2023-09-19T08:47:01;11.30;99.90
25556;DHT22;13447;57.174;-2.112;2023-09-19T08:49:42;11.40;99.90
25556;DHT22;13447;57.174;-2.112;2023-09-19T08:52:16;11.50;99.90
25556;DHT22;13447;57.174;-2.112;2023-09-19T08:54:47;11.60;99.90
25556;DHT22;13447;57.174;-2.112;2023-09-19T08:57:15;11.50;99.90
25556;DHT22;13447;57.174;-2.112;2023-09-19T08:59:48;11.60;99.90
25556;DHT22;13447;57.174;-2.112;2023-09-19T09:02:16;11.80;99.90
25556;DHT22;13447;57.174;-2.112;2023-09-19T09:04:45;12.10;99.90
25556;DHT22;13447;57.174;-2.112;2023-09-19T09:07:13;12.20;99.90
25556;DHT22;13447;57.174;-2.112;2023-09-19T09:09:40;12.20;99.90
25556;DHT22;13447;57.174;-2.112;2023-09-19T09:12:13;12.20;99.90
25556;DHT22;13447;57.174;-2.112;2023-09-19T09:14:44;12.30;99.90
25556;DHT22;13447;57.174;-2.112;2023-09-19T09:17:11;12.40;99.90
25556;DHT22;13447;57.174;-2.112;2023-09-19T09:19:38;12.70;99.90
25556;DHT22;13447;57.174;-2.112;2023-09-19T09:24:32;12.90;99.90
25556;DHT22;13447;57.174;-2.112;2023-09-19T09:29:44;13.10;99.90
25556;DHT22;13447;57.174;-2.112;2023-09-19T09:34:45;13.30;99.90
25556;DHT22;13447;57.174;-2.112;2023-09-19T09:37:13;13.40;99.90
25556;DHT22;13447;57.174;-2.112;2023-09-19T09:39:42;13.40;99.90
25556;DHT22;13447;57.174;-2.112;2023-09-19T09:45:18;13.30;99.90
25556;DHT22;13447;57.174;-2.112;2023-09-19T09:47:55;13.30;99.90
25556;DHT22;13447;57.174;-2.112;2023-09-19T09:50:27;13.10;99.90
25556;DHT22;13447;57.174;-2.112;2023-09-19T09:53:29;12.90;99.90
25556;DHT22;13447;57.174;-2.112;2023-09-19T09:58:29;12.90;99.90
25556;DHT22;13447;57.174;-2.112;2023-09-19T10:00:58;12.70;99.90
25556;DHT22;13447;57.174;-2.112;2023-09-19T10:03:33;12.60;99.90
25556;DHT22;13447;57.174;-2.112;2023-09-19T10:06:01;12.60;99.90
25556;DHT22;13447;57.174;-2.112;2023-09-19T10:11:32;12.40;99.90
25556;DHT22;13447;57.174;-2.112;2023-09-19T10:14:04;12.40;99.90
25556;DHT22;13447;57.174;-2.112;2023-09-19T10:16:32;12.40;99.90
25556;DHT22;13447;57.174;-2.112;2023-09-19T10:19:01;12.40;99.90
25556;DHT22;13447;57.174;-2.112;2023-09-19T10:21:28;12.30;99.90
25556;DHT22;13447;57.174;-2.112;2023-09-19T10:23:59;12.30;99.90
25556;DHT22;13447;57.174;-2.112;2023-09-19T10:26:27;12.40;99.90
25556;DHT22;13447;57.174;-2.112;2023-09-19T10:28:57;12.30;99.90
25556;DHT22;13447;57.174;-2.112;2023-09-19T10:31:27;12.30;99.90
25556;DHT22;13447;57.174;-2.112;2023-09-19T10:33:55;12.40;99.90
25556;DHT22;13447;57.174;-2.112;2023-09-19T10:36:25;12.40;99.90
25556;DHT22;13447;57.174;-2.112;2023-09-19T10:38:53;12.50;99.90
25556;DHT22;13447;57.174;-2.112;2023-09-19T10:41:22;12.50;99.90
25556;DHT22;13447;57.174;-2.112;2023-09-19T10:43:49;12.50;99.90
25556;DHT22;13447;57.174;-2.112;2023-09-19T10:46:17;12.50;99.90
25556;DHT22;13447;57.174;-2.112;2023-09-19T10:48:44;12.40;99.90
25556;DHT22;13447;57.174;-2.112;2023-09-19T10:51:16;12.50;99.90
25556;DHT22;13447;57.174;-2.112;2023-09-19T10:56:32;12.70;99.90
25556;DHT22;13447;57.174;-2.112;2023-09-19T10:59:10;12.80;99.90
25556;DHT22;13447;57.174;-2.112;2023-09-19T11:01:43;12.90;99.90
25556;DHT22;13447;57.174;-2.112;2023-09-19T11:04:24;12.90;99.90
25556;DHT22;13447;57.174;-2.112;2023-09-19T11:07:06;13.00;99.90
25556;DHT22;13447;57.174;-2.112;2023-09-19T11:09:43;12.90;99.90
25556;DHT22;13447;57.174;-2.112;2023-09-19T11:12:09;12.80;99.90
25556;DHT22;13447;57.174;-2.112;2023-09-19T11:14:40;13.00;99.90
25556;DHT22;13447;57.174;-2.112;2023-09-19T11:22:23;13.00;99.90
25556;DHT22;13447;57.174;-2.112;2023-09-19T11:24:53;13.10;99.90
25556;DHT22;13447;57.174;-2.112;2023-09-19T11:27:22;13.10;99.90
25556;DHT22;13447;57.174;-2.112;2023-09-19T11:30:25;13.10;99.90
25556;DHT22;13447;57.174;-2.112;2023-09-19T11:35:58;13.20;99.90
25556;DHT22;13447;57.174;-2.112;2023-09-19T11:38:17;13.20;99.90
25556;DHT22;13447;57.174;-2.112;2023-09-19T11:40:44;13.40;54.70
25556;DHT22;13447;57.174;-2.112;2023-09-19T11:43:30;13.50;50.90
25556;DHT22;13447;57.174;-2.112;2023-09-19T11:46:01;13.60;53.80
25556;DHT22;13447;57.174;-2.112;2023-09-19T11:48:28;13.50;19.90
25556;DHT22;13447;57.174;-2.112;2023-09-19T11:50:56;13.60;30.20
25556;DHT22;13447;57.174;-2.112;2023-09-19T11:53:24;13.70;19.60
25556;DHT22;13447;57.174;-2.112;2023-09-19T11:55:57;13.70;6.40
25556;DHT22;13447;57.174;-2.112;2023-09-19T11:58:25;13.60;57.80
25556;DHT22;13447;57.174;-2.112;2023-09-19T12:00:55;13.70;52.40
25556;DHT22;13447;57.174;-2.112;2023-09-19T12:03:27;13.70;34.00
25556;DHT22;13447;57.174;-2.112;2023-09-19T12:05:56;13.70;40.20
25556;DHT22;13447;57.174;-2.112;2023-09-19T12:08:24;13.80;44.70
25556;DHT22;13447;57.174;-2.112;2023-09-19T12:10:53;13.90;21.90
25556;DHT22;13447;57.174;-2.112;2023-09-19T12:13:22;13.70;21.30
25556;DHT22;13447;57.174;-2.112;2023-09-19T12:15:49;13.80;43.50
25556;DHT22;13447;57.174;-2.112;2023-09-19T12:18:28;14.00;45.90
25556;DHT22;13447;57.174;-2.112;2023-09-19T12:20:56;14.20;20.90
25556;DHT22;13447;57.174;-2.112;2023-09-19T12:23:25;14.30;1.50
25556;DHT22;13447;57.174;-2.112;2023-09-19T12:25:54;14.30;1.10
25556;DHT22;13447;57.174;-2.112;2023-09-19T12:28:27;14.20;1.00
25556;DHT22;13447;57.174;-2.112;2023-09-19T12:31:05;14.30;7.60
25556;DHT22;13447;57.174;-2.112;2023-09-19T12:33:34;14.40;1.00
25556;DHT22;13447;57.174;-2.112;2023-09-19T12:38:56;14.20;1.90
25556;DHT22;13447;57.174;-2.112;2023-09-19T12:41:26;14.30;10.10
25556;DHT22;13447;57.174;-2.112;2023-09-19T12:43:53;14.20;63.80
25556;DHT22;13447;57.174;-2.112;2023-09-19T12:46:21;14.30;54.00
25556;DHT22;13447;57.174;-2.112;2023-09-19T12:51:39;14.20;27.80
25556;DHT22;13447;57.174;-2.112;2023-09-19T12:54:06;14.20;7.60
25556;DHT22;13447;57.174;-2.112;2023-09-19T12:56:39;14.30;8.20
25556;DHT22;13447;57.174;-2.112;2023-09-19T12:59:12;14.30;1.00
25556;DHT22;13447;57.174;-2.112;2023-09-19T13:01:40;14.30;1.00
25556;DHT22;13447;57.174;-2.112;2023-09-19T13:04:20;14.20;1.00
25556;DHT22;13447;57.174;-2.112;2023-09-19T13:06:55;14.10;1.00
25556;DHT22;13447;57.174;-2.112;2023-09-19T13:09:27;14.00;1.00
25556;DHT22;13447;57.174;-2.112;2023-09-19T13:12:02;13.90;1.00
25556;DHT22;13447;57.174;-2.112;2023-09-19T13:14:29;14.00;1.00
25556;DHT22;13447;57.174;-2.112;2023-09-19T13:17:07;13.90;1.00
25556;DHT22;13447;57.174;-2.112;2023-09-19T13:24:58;13.90;1.00
25556;DHT22;13447;57.174;-2.112;2023-09-19T13:27:26;13.90;1.00
25556;DHT22;13447;57.174;-2.112;2023-09-19T13:29:54;13.90;1.00
25556;DHT22;13447;57.174;-2.112;2023-09-19T13:32:21;13.90;1.00
25556;DHT22;13447;57.174;-2.112;2023-09-19T13:34:47;13.90;1.00
25556;DHT22;13447;57.174;-2.112;2023-09-19T13:37:15;13.90;1.00
25556;DHT22;13447;57.174;-2.112;2023-09-19T13:39:44;13.90;1.00
25556;DHT22;13447;57.174;-2.112;2023-09-19T13:42:14;13.80;1.00
25556;DHT22;13447;57.174;-2.112;2023-09-19T13:44:42;13.80;1.00
25556;DHT22;13447;57.174;-2.112;2023-09-19T13:47:10;13.80;1.00
25556;DHT22;13447;57.174;-2.112;2023-09-19T13:49:40;13.80;1.00
25556;DHT22;13447;57.174;-2.112;2023-09-19T13:52:06;13.70;1.00
25556;DHT22;13447;57.174;-2.112;2023-09-19T13:54:34;13.80;1.00
25556;DHT22;13447;57.174;-2.112;2023-09-19T13:57:00;13.80;10.20
25556;DHT22;13447;57.174;-2.112;2023-09-19T13:59:27;13.70;5.30
25556;DHT22;13447;57.174;-2.112;2023-09-19T14:01:55;13.70;1.00
25556;DHT22;13447;57.174;-2.112;2023-09-19T14:04:22;13.80;1.00
25556;DHT22;13447;57.174;-2.112;2023-09-19T14:06:49;13.80;1.00
25556;DHT22;13447;57.174;-2.112;2023-09-19T14:09:15;13.70;13.00
25556;DHT22;13447;57.174;-2.112;2023-09-19T14:11:46;13.60;1.80
25556;DHT22;13447;57.174;-2.112;2023-09-19T14:14:14;13.70;4.50
25556;DHT22;13447;57.174;-2.112;2023-09-19T14:16:42;13.70;6.30
25556;DHT22;13447;57.174;-2.112;2023-09-19T14:19:09;13.60;24.40
25556;DHT22;13447;57.174;-2.112;2023-09-19T14:21:35;13.60;46.20
25556;DHT22;13447;57.174;-2.112;2023-09-19T14:24:06;13.50;73.70
25556;DHT22;13447;57.174;-2.112;2023-09-19T14:26:36;13.60;92.10
25556;DHT22;13447;57.174;-2.112;2023-09-19T14:29:03;13.50;99.90
25556;DHT22;13447;57.174;-2.112;2023-09-19T14:31:30;13.40;99.90
25556;DHT22;13447;57.174;-2.112;2023-09-19T14:33:57;13.40;99.90
25556;DHT22;13447;57.174;-2.112;2023-09-19T14:36:24;13.40;99.90
25556;DHT22;13447;57.174;-2.112;2023-09-19T14:38:52;13.40;99.90
25556;DHT22;13447;57.174;-2.112;2023-09-19T14:41:20;13.40;99.90
25556;DHT22;13447;57.174;-2.112;2023-09-19T14:43:48;13.40;99.90
25556;DHT22;13447;57.174;-2.112;2023-09-19T14:46:15;13.50;99.90
25556;DHT22;13447;57.174;-2.112;2023-09-19T14:48:43;13.60;99.90
25556;DHT22;13447;57.174;-2.112;2023-09-19T14:51:10;13.50;99.90
25556;DHT22;13447;57.174;-2.112;2023-09-19T14:53:39;13.60;99.90
25556;DHT22;13447;57.174;-2.112;2023-09-19T14:56:07;13.60;99.90
25556;DHT22;13447;57.174;-2.112;2023-09-19T14:58:34;13.60;99.90
25556;DHT22;13447;57.174;-2.112;2023-09-19T15:01:06;13.60;99.90
25556;DHT22;13447;57.174;-2.112;2023-09-19T15:03:33;13.70;99.90
25556;DHT22;13447;57.174;-2.112;2023-09-19T15:06:04;13.70;99.90
25556;DHT22;13447;57.174;-2.112;2023-09-19T15:08:37;13.70;99.90
25556;DHT22;13447;57.174;-2.112;2023-09-19T15:11:07;13.70;99.90
25556;DHT22;13447;57.174;-2.112;2023-09-19T15:13:35;13.70;99.90
25556;DHT22;13447;57.174;-2.112;2023-09-19T15:16:05;13.70;99.90
25556;DHT22;13447;57.174;-2.112;2023-09-19T15:18:36;13.80;99.90
25556;DHT22;13447;57.174;-2.112;2023-09-19T15:21:07;13.80;99.90
25556;DHT22;13447;57.174;-2.112;2023-09-19T15:23:36;13.80;99.90
25556;DHT22;13447;57.174;-2.112;2023-09-19T15:26:03;13.80;99.90
25556;DHT22;13447;57.174;-2.112;2023-09-19T15:28:30;13.70;99.90
25556;DHT22;13447;57.174;-2.112;2023-09-19T15:30:59;13.70;99.90
25556;DHT22;13447;57.174;-2.112;2023-09-19T15:33:27;13.70;99.90
25556;DHT22;13447;57.174;-2.112;2023-09-19T15:36:01;13.60;99.90
25556;DHT22;13447;57.174;-2.112;2023-09-19T15:38:30;13.60;99.90
25556;DHT22;13447;57.174;-2.112;2023-09-19T15:40:58;13.60;99.90
25556;DHT22;13447;57.174;-2.112;2023-09-19T15:43:26;13.60;99.90
25556;DHT22;13447;57.174;-2.112;2023-09-19T15:45:53;13.50;99.90
25556;DHT22;13447;57.174;-2.112;2023-09-19T15:48:20;13.50;99.90
25556;DHT22;13447;57.174;-2.112;2023-09-19T15:50:48;13.50;99.90
25556;DHT22;13447;57.174;-2.112;2023-09-19T15:53:15;13.50;99.90
25556;DHT22;13447;57.174;-2.112;2023-09-19T15:55:43;13.50;99.90
25556;DHT22;13447;57.174;-2.112;2023-09-19T15:58:10;13.50;99.90
25556;DHT22;13447;57.174;-2.112;2023-09-19T16:00:39;13.40;99.90
25556;DHT22;13447;57.174;-2.112;2023-09-19T16:03:07;13.40;99.90
25556;DHT22;13447;57.174;-2.112;2023-09-19T16:05:37;13.40;99.90
25556;DHT22;13447;57.174;-2.112;2023-09-19T16:08:06;13.40;99.90
25556;DHT22;13447;57.174;-2.112;2023-09-19T16:10:34;13.40;99.90
25556;DHT22;13447;57.174;-2.112;2023-09-19T16:13:01;13.40;99.90
25556;DHT22;13447;57.174;-2.112;2023-09-19T16:15:28;13.40;99.90
25556;DHT22;13447;57.174;-2.112;2023-09-19T16:17:55;13.30;99.90
25556;DHT22;13447;57.174;-2.112;2023-09-19T16:20:21;13.30;99.90
25556;DHT22;13447;57.174;-2.112;2023-09-19T16:22:49;13.30;99.90
25556;DHT22;13447;57.174;-2.112;2023-09-19T16:25:16;13.20;99.90
25556;DHT22;13447;57.174;-2.112;2023-09-19T16:27:43;13.20;99.90
25556;DHT22;13447;57.174;-2.112;2023-09-19T16:30:10;13.10;99.90
25556;DHT22;13447;57.174;-2.112;2023-09-19T16:32:37;13.10;99.90
25556;DHT22;13447;57.174;-2.112;2023-09-19T16:35:04;13.10;99.90
25556;DHT22;13447;57.174;-2.112;2023-09-19T16:37:31;13.20;99.90
25556;DHT22;13447;57.174;-2.112;2023-09-19T16:39:58;13.20;99.90
25556;DHT22;13447;57.174;-2.112;2023-09-19T16:42:26;13.20;99.90
25556;DHT22;13447;57.174;-2.112;2023-09-19T16:44:56;13.20;99.90
25556;DHT22;13447;57.174;-2.112;2023-09-19T16:47:23;13.20;99.90
25556;DHT22;13447;57.174;-2.112;2023-09-19T16:49:50;13.10;99.90